createdAt,value
2022-08-23T00:02:44.429Z,15.19
2022-08-23T00:05:31.675Z,15.20
2022-08-23T00:08:18.123Z,15.05
2022-08-23T00:11:05.364Z,15.00
2022-08-23T00:13:51.955Z,14.98
2022-08-23T00:16:38.841Z,15.01
2022-08-23T00:19:26.301Z,15.10
2022-08-23T00:22:13.003Z,14.83
2022-08-23T00:25:00.939Z,14.95
2022-08-23T00:27:47.122Z,14.76
2022-08-23T00:30:33.804Z,14.82
2022-08-23T00:33:21.823Z,14.59
2022-08-23T00:36:08.353Z,14.72
2022-08-23T00:38:54.606Z,14.66
2022-08-23T00:41:41.144Z,14.85
2022-08-23T00:44:52.801Z,14.87
2022-08-23T00:47:39.911Z,14.82
2022-08-23T00:50:56.342Z,14.68
2022-08-23T00:53:55.565Z,14.73
2022-08-23T00:56:42.817Z,14.53
2022-08-23T00:59:32.597Z,14.69
2022-08-23T01:02:20.212Z,14.51
2022-08-23T01:05:07.636Z,14.52
2022-08-23T01:07:57.904Z,14.72
2022-08-23T01:10:53.333Z,14.62
2022-08-23T01:13:54.979Z,14.61
2022-08-23T01:17:07.321Z,14.25
2022-08-23T01:20:01.540Z,14.21
2022-08-23T01:22:57.754Z,14.17
2022-08-23T01:25:45.122Z,14.10
2022-08-23T01:28:32.018Z,14.14
2022-08-23T01:31:19.543Z,13.93
2022-08-23T01:34:10.329Z,14.16
2022-08-23T01:36:58.642Z,14.15
2022-08-23T01:39:45.278Z,13.95
2022-08-23T01:45:33.994Z,13.91
2022-08-23T01:48:21.869Z,14.11
2022-08-23T01:51:10.821Z,13.82
2022-08-23T01:53:58.172Z,13.83
2022-08-23T01:56:47.037Z,13.87
2022-08-23T01:59:34.702Z,13.82
2022-08-23T02:02:21.431Z,13.84
2022-08-23T02:05:10.592Z,13.82
2022-08-23T02:08:18.185Z,13.73
2022-08-23T02:11:13.580Z,13.68
2022-08-23T02:14:02.160Z,13.78
2022-08-23T02:17:03.340Z,13.85
2022-08-23T02:19:55.747Z,13.58
2022-08-23T02:22:41.986Z,13.81
2022-08-23T02:25:28.218Z,13.77
2022-08-23T02:28:14.780Z,13.82
2022-08-23T02:31:01.565Z,13.65
2022-08-23T02:33:49.943Z,13.36
2022-08-23T02:36:38.248Z,13.47
2022-08-23T02:39:24.938Z,13.34
2022-08-23T02:42:11.749Z,13.33
2022-08-23T02:45:00.550Z,13.31
2022-08-23T02:47:47.972Z,13.47
2022-08-23T02:50:39.425Z,13.34
2022-08-23T02:53:26.178Z,13.27
2022-08-23T02:56:21.307Z,13.20
2022-08-23T02:59:08.942Z,13.34
2022-08-23T03:01:56.266Z,13.33
2022-08-23T03:04:51.170Z,13.27
2022-08-23T03:07:38.054Z,13.26
2022-08-23T03:10:24.426Z,13.03
2022-08-23T03:13:17.395Z,13.26
2022-08-23T03:16:06.222Z,13.16
2022-08-23T03:18:52.736Z,13.18
2022-08-23T03:21:39.790Z,13.00
2022-08-23T03:24:30.657Z,12.91
2022-08-23T03:27:19.238Z,13.01
2022-08-23T03:30:07.189Z,13.16
2022-08-23T03:33:02.001Z,13.07
2022-08-23T03:35:50.201Z,13.13
2022-08-23T03:38:39.696Z,12.96
2022-08-23T03:41:28.335Z,12.85
2022-08-23T03:44:15.642Z,12.94
2022-08-23T03:47:06.003Z,12.84
2022-08-23T03:49:52.322Z,12.87
2022-08-23T03:52:38.789Z,12.72
2022-08-23T03:55:25.374Z,12.76
2022-08-23T03:58:12.404Z,12.76
2022-08-23T04:00:58.720Z,12.60
2022-08-23T04:03:48.426Z,12.86
2022-08-23T04:06:35.965Z,12.65
2022-08-23T04:09:22.451Z,12.85
2022-08-23T04:12:17.628Z,12.61
2022-08-23T04:15:05.004Z,12.65
2022-08-23T04:17:55.889Z,12.56
2022-08-23T04:20:43.718Z,12.36
2022-08-23T04:23:31.330Z,12.70
2022-08-23T04:26:18.128Z,12.52
2022-08-23T04:29:05.254Z,12.46
2022-08-23T04:31:51.913Z,12.65
2022-08-23T04:34:45.594Z,12.64
2022-08-23T04:37:35.327Z,12.26
2022-08-23T04:40:41.276Z,12.63
2022-08-23T04:43:28.433Z,12.60
2022-08-23T04:46:16.034Z,12.59
2022-08-23T04:49:04.133Z,12.61
2022-08-23T04:51:53.974Z,12.71
2022-08-23T04:54:41.770Z,12.71
2022-08-23T04:57:48.459Z,12.58
2022-08-23T05:00:39.515Z,12.43
2022-08-23T05:03:27.028Z,13.01
2022-08-23T05:06:15.249Z,13.06
2022-08-23T05:09:02.144Z,13.01
2022-08-23T05:11:49.938Z,13.27
2022-08-23T05:14:37.073Z,13.57
2022-08-23T05:17:24.091Z,14.30
2022-08-23T05:20:10.738Z,14.94
2022-08-23T05:23:00.685Z,15.35
2022-08-23T05:25:55.039Z,15.36
2022-08-23T05:28:49.145Z,15.52
2022-08-23T05:31:37.971Z,15.26
2022-08-23T05:34:25.502Z,15.44
2022-08-23T05:37:15.773Z,15.28
2022-08-23T05:40:02.946Z,15.26
2022-08-23T05:42:54.394Z,15.14
2022-08-23T05:45:40.752Z,15.14
2022-08-23T05:48:29.095Z,15.45
2022-08-23T05:51:22.758Z,15.45
2022-08-23T05:54:10.713Z,15.35
2022-08-23T05:56:57.498Z,15.45
2022-08-23T05:59:44.526Z,15.55
2022-08-23T06:02:31.126Z,15.55
2022-08-23T06:05:19.519Z,15.82
2022-08-23T06:08:06.789Z,15.89
2022-08-23T06:11:02.515Z,16.16
2022-08-23T06:13:56.065Z,16.33
2022-08-23T06:16:48.142Z,16.49
2022-08-23T06:19:38.876Z,16.64
2022-08-23T06:22:30.932Z,16.90
2022-08-23T06:25:17.311Z,16.97
2022-08-23T06:28:11.838Z,17.22
2022-08-23T06:30:59.019Z,17.28
2022-08-23T06:33:50.724Z,17.44
2022-08-23T06:37:07.059Z,17.61
2022-08-23T06:40:12.254Z,17.83
2022-08-23T06:43:14.594Z,17.87
2022-08-23T06:46:23.566Z,18.28
2022-08-23T06:49:10.685Z,18.18
2022-08-23T06:52:05.923Z,18.34
2022-08-23T06:55:03.695Z,18.59
2022-08-23T06:58:10.434Z,18.75
2022-08-23T07:01:46.474Z,18.75
2022-08-23T07:04:43.344Z,18.71
2022-08-23T07:07:44.122Z,18.71
2022-08-23T07:10:32.153Z,18.91
2022-08-23T07:13:18.884Z,19.16
2022-08-23T07:16:05.760Z,19.36
2022-08-23T07:18:55.426Z,19.58
2022-08-23T07:21:42.840Z,19.83
2022-08-23T07:24:33.660Z,19.95
2022-08-23T07:27:21.873Z,20.14
2022-08-23T07:30:34.446Z,20.11
2022-08-23T07:33:22.619Z,20.43
2022-08-23T07:36:40.993Z,20.62
2022-08-23T07:39:28.006Z,20.60
2022-08-23T07:42:23.718Z,20.65
2022-08-23T07:45:13.093Z,20.86
2022-08-23T07:48:01.933Z,21.07
2022-08-23T07:51:01.303Z,21.10
2022-08-23T07:53:48.790Z,21.21
2022-08-23T07:56:37.627Z,21.52
2022-08-23T07:59:44.073Z,21.51
2022-08-23T08:02:41.603Z,21.53
2022-08-23T08:05:37.094Z,21.90
2022-08-23T08:08:23.382Z,21.98
2022-08-23T08:11:12.222Z,22.16
2022-08-23T08:13:59.823Z,22.23
2022-08-23T08:16:50.419Z,22.29
2022-08-23T08:19:49.854Z,22.29
2022-08-23T08:22:58.521Z,22.58
2022-08-23T08:25:46.742Z,22.70
2022-08-23T08:28:36.571Z,23.02
2022-08-23T08:31:24.477Z,22.77
2022-08-23T08:34:10.924Z,23.10
2022-08-23T08:36:59.253Z,23.07
2022-08-23T08:39:47.016Z,23.22
2022-08-23T08:42:35.075Z,23.44
2022-08-23T08:45:29.537Z,23.57
2022-08-23T08:48:23.683Z,23.65
2022-08-23T08:51:25.187Z,23.65
2022-08-23T08:54:17.354Z,23.81
2022-08-23T08:57:08.955Z,24.23
2022-08-23T09:00:14.952Z,24.18
2022-08-23T09:03:09.520Z,24.44
2022-08-23T09:06:19.394Z,24.39
2022-08-23T09:09:27.454Z,24.79
2022-08-23T09:12:33.633Z,24.82
2022-08-23T09:15:49.050Z,24.76
2022-08-23T09:18:36.488Z,24.93
2022-08-23T09:21:24.502Z,25.04
2022-08-23T09:24:15.803Z,25.08
2022-08-23T09:27:12.843Z,25.27
2022-08-23T09:30:01.190Z,25.49
2022-08-23T09:32:50.294Z,25.26
2022-08-23T09:35:38.607Z,25.43
2022-08-23T09:38:29.858Z,25.62
2022-08-23T09:41:25.728Z,25.83
2022-08-23T09:44:33.559Z,25.78
2022-08-23T09:47:20.631Z,25.95
2022-08-23T09:50:47.771Z,26.06
2022-08-23T09:53:35.352Z,26.08
2022-08-23T09:56:28.323Z,26.24
2022-08-23T09:59:27.441Z,26.44
2022-08-23T10:02:33.618Z,26.18
2022-08-23T10:05:37.891Z,26.43
2022-08-23T10:08:33.783Z,26.45
2022-08-23T10:11:31.208Z,26.52
2022-08-23T10:14:21.081Z,26.22
2022-08-23T10:17:49.209Z,26.43
2022-08-23T10:20:42.056Z,26.52
2022-08-23T10:23:48.219Z,26.62
2022-08-23T10:26:39.168Z,26.66
2022-08-23T10:29:47.593Z,26.46
2022-08-23T10:32:48.905Z,26.51
2022-08-23T10:35:45.727Z,26.98
2022-08-23T10:38:38.558Z,26.96
2022-08-23T10:41:51.838Z,26.94
2022-08-23T10:45:02.208Z,27.00
2022-08-23T10:48:22.005Z,27.19
2022-08-23T10:51:22.590Z,27.08
2022-08-23T10:54:35.241Z,27.15
2022-08-23T10:57:32.159Z,27.24
2022-08-23T11:00:24.650Z,27.14
2022-08-23T11:03:32.556Z,27.32
2022-08-23T11:06:46.123Z,27.44
2022-08-23T11:09:58.351Z,27.49
2022-08-23T11:12:53.190Z,27.62
2022-08-23T11:15:44.900Z,27.66
2022-08-23T11:18:41.921Z,27.81
2022-08-23T11:21:33.231Z,27.71
2022-08-23T11:24:31.658Z,27.78
2022-08-23T11:27:38.326Z,27.82
2022-08-23T11:30:31.913Z,27.83
2022-08-23T11:33:35.679Z,27.48
2022-08-23T11:36:25.148Z,27.70
2022-08-23T11:39:13.779Z,27.88
2022-08-23T11:42:07.147Z,27.83
2022-08-23T11:44:55.972Z,28.06
2022-08-23T11:47:44.496Z,28.13
2022-08-23T11:50:51.885Z,28.19
2022-08-23T11:53:54.217Z,27.95
2022-08-23T11:56:56.078Z,28.11
2022-08-23T12:00:10.871Z,28.13
2022-08-23T12:03:09.811Z,28.06
2022-08-23T12:05:56.255Z,28.16
2022-08-23T12:09:04.547Z,28.54
2022-08-23T12:11:57.065Z,28.70
2022-08-23T12:14:43.158Z,28.74
2022-08-23T12:17:29.881Z,28.90
2022-08-23T12:20:29.168Z,28.85
2022-08-23T12:23:18.454Z,28.97
2022-08-23T12:26:13.521Z,29.25
2022-08-23T12:29:07.222Z,29.48
2022-08-23T12:32:15.173Z,29.38
2022-08-23T12:35:38.375Z,29.45
2022-08-23T12:38:27.502Z,29.51
2022-08-23T12:41:28.180Z,29.49
2022-08-23T12:44:19.526Z,29.75
2022-08-23T12:47:13.507Z,29.82
2022-08-23T12:50:46.530Z,30.02
2022-08-23T12:53:38.547Z,29.96
2022-08-23T12:56:31.872Z,29.83
2022-08-23T12:59:51.291Z,29.93
2022-08-23T13:02:38.637Z,29.97
2022-08-23T13:05:52.724Z,30.02
2022-08-23T13:08:41.538Z,30.06
2022-08-23T13:11:31.564Z,30.19
2022-08-23T13:14:30.947Z,30.12
2022-08-23T13:17:19.962Z,30.26
2022-08-23T13:20:09.274Z,30.39
2022-08-23T13:22:58.954Z,30.43
2022-08-23T13:25:45.594Z,30.15
2022-08-23T13:28:31.994Z,30.21
2022-08-23T13:31:18.326Z,30.31
2022-08-23T13:34:06.281Z,30.31
2022-08-23T13:36:52.529Z,30.18
2022-08-23T13:39:46.026Z,30.01
2022-08-23T13:42:49.121Z,29.98
2022-08-23T13:45:49.372Z,30.04
2022-08-23T13:48:37.518Z,30.04
2022-08-23T13:51:26.775Z,29.85
2022-08-23T13:54:15.060Z,29.72
2022-08-23T13:57:05.657Z,29.84
2022-08-23T13:59:55.748Z,29.74
2022-08-23T14:02:42.733Z,29.56
2022-08-23T14:05:29.352Z,29.55
2022-08-23T14:08:20.438Z,29.64
2022-08-23T14:11:07.073Z,29.54
2022-08-23T14:13:53.738Z,29.81
2022-08-23T14:16:41.495Z,30.07
2022-08-23T14:22:35.588Z,30.31
2022-08-23T14:25:21.862Z,30.33
2022-08-23T14:28:08.294Z,30.35
2022-08-23T14:30:54.656Z,30.10
2022-08-23T14:33:41.650Z,30.16
2022-08-23T14:36:27.990Z,29.94
2022-08-23T14:39:16.880Z,29.95
2022-08-23T14:42:04.368Z,30.11
2022-08-23T14:44:51.262Z,30.04
2022-08-23T14:47:37.997Z,29.84
2022-08-23T14:50:24.477Z,29.85
2022-08-23T14:53:16.423Z,29.91
2022-08-23T14:56:20.699Z,29.77
2022-08-23T14:59:08.481Z,29.34
2022-08-23T15:01:55.125Z,29.78
2022-08-23T15:04:42.210Z,29.59
2022-08-23T15:07:28.578Z,29.44
2022-08-23T15:13:30.040Z,29.61
2022-08-23T15:16:22.247Z,29.50
2022-08-23T15:19:08.923Z,29.63
2022-08-23T15:21:55.166Z,29.64
2022-08-23T15:24:41.635Z,29.54
2022-08-23T15:27:28.472Z,29.44
2022-08-23T15:30:16.589Z,29.46
2022-08-23T15:33:04.262Z,29.51
2022-08-23T15:35:54.861Z,29.42
2022-08-23T15:38:43.763Z,29.26
2022-08-23T15:41:30.039Z,29.30
2022-08-23T15:44:16.791Z,29.26
2022-08-23T15:47:05.648Z,29.53
2022-08-23T15:49:52.162Z,29.57
2022-08-23T15:52:38.802Z,29.47
2022-08-23T15:55:30.933Z,29.26
2022-08-23T15:58:22.083Z,29.20
2022-08-23T16:01:09.739Z,29.32
2022-08-23T16:03:56.434Z,28.95
2022-08-23T16:06:45.041Z,28.82
2022-08-23T16:09:31.617Z,28.90
2022-08-23T16:12:18.190Z,29.07
2022-08-23T16:15:05.374Z,28.80
2022-08-23T16:17:52.165Z,28.75
2022-08-23T16:20:38.548Z,28.50
2022-08-23T16:23:26.423Z,28.51
2022-08-23T16:26:21.441Z,28.35
2022-08-23T16:29:09.873Z,28.25
2022-08-23T16:31:56.480Z,28.05
2022-08-23T16:34:43.291Z,28.41
2022-08-23T16:37:29.531Z,28.36
2022-08-23T16:40:16.082Z,28.23
2022-08-23T16:43:02.796Z,28.32
2022-08-23T16:45:49.532Z,28.36
2022-08-23T16:48:35.961Z,28.27
2022-08-23T16:51:22.653Z,28.30
2022-08-23T16:54:09.442Z,28.36
2022-08-23T16:56:56.630Z,28.36
2022-08-23T16:59:43.833Z,28.10
2022-08-23T17:02:33.768Z,28.08
2022-08-23T17:05:20.493Z,27.96
2022-08-23T17:08:06.895Z,27.93
2022-08-23T17:10:53.287Z,27.72
2022-08-23T17:13:40.102Z,27.81
2022-08-23T17:16:26.562Z,27.56
2022-08-23T17:19:14.270Z,27.69
2022-08-23T17:22:00.690Z,27.67
2022-08-23T17:24:47.222Z,27.82
2022-08-23T17:27:33.562Z,27.81
2022-08-23T17:30:22.045Z,27.88
2022-08-23T17:33:09.166Z,27.87
2022-08-23T17:35:55.449Z,27.50
2022-08-23T17:38:41.618Z,27.37
2022-08-23T17:41:28.599Z,27.45
2022-08-23T17:44:15.811Z,27.51
2022-08-23T17:47:07.053Z,27.48
2022-08-23T17:49:55.110Z,27.24
2022-08-23T17:52:41.501Z,27.05
2022-08-23T17:55:28.893Z,26.98
2022-08-23T17:58:19.849Z,26.79
2022-08-23T18:01:06.886Z,26.82
2022-08-23T18:03:53.983Z,26.74
2022-08-23T18:06:40.603Z,26.71
2022-08-23T18:09:26.974Z,26.59
2022-08-23T18:12:13.357Z,26.48
2022-08-23T18:15:03.390Z,26.30
2022-08-23T18:17:49.833Z,26.42
2022-08-23T18:20:38.578Z,26.07
2022-08-23T18:23:26.169Z,25.91
2022-08-23T18:26:33.583Z,25.55
2022-08-23T18:29:20.721Z,24.85
2022-08-23T18:32:08.193Z,24.87
2022-08-23T18:34:56.902Z,24.70
2022-08-23T18:37:43.163Z,24.37
2022-08-23T18:40:29.877Z,24.16
2022-08-23T18:43:18.131Z,23.98
2022-08-23T18:46:05.090Z,23.73
2022-08-23T18:48:53.709Z,23.78
2022-08-23T18:51:41.621Z,23.44
2022-08-23T18:54:33.059Z,23.09
2022-08-23T18:57:20.269Z,23.16
2022-08-23T19:00:09.914Z,22.96
2022-08-23T19:02:56.533Z,22.69
2022-08-23T19:05:43.398Z,22.77
2022-08-23T19:08:29.501Z,22.47
2022-08-23T19:11:16.246Z,22.22
2022-08-23T19:14:02.950Z,22.12
2022-08-23T19:16:50.879Z,22.08
2022-08-23T19:19:37.462Z,22.13
2022-08-23T19:22:24.350Z,21.95
2022-08-23T19:25:10.845Z,21.92
2022-08-23T19:27:57.161Z,21.89
2022-08-23T19:30:43.935Z,21.69
2022-08-23T19:33:30.285Z,21.60
2022-08-23T19:36:42.693Z,21.52
2022-08-23T19:39:24.574Z,21.25
2022-08-23T19:42:11.830Z,21.39
2022-08-23T19:44:58.415Z,21.18
2022-08-23T19:47:45.313Z,21.02
2022-08-23T19:50:32.467Z,20.96
2022-08-23T19:53:18.566Z,20.91
2022-08-23T19:56:05.217Z,20.98
2022-08-23T19:58:52.411Z,20.86
2022-08-23T20:01:40.083Z,20.75
2022-08-23T20:04:29.726Z,20.70
2022-08-23T20:07:16.013Z,20.45
2022-08-23T20:10:04.430Z,20.52
2022-08-23T20:12:50.602Z,20.34
2022-08-23T20:15:39.083Z,20.14
2022-08-23T20:18:25.586Z,20.18
2022-08-23T20:21:12.144Z,19.92
2022-08-23T20:24:05.415Z,19.91
2022-08-23T20:26:52.157Z,19.66
2022-08-23T20:29:38.650Z,19.79
2022-08-23T20:32:26.325Z,19.60
2022-08-23T20:35:12.554Z,19.51
2022-08-23T20:37:58.997Z,19.54
2022-08-23T20:40:45.611Z,19.56
2022-08-23T20:43:35.730Z,19.57
2022-08-23T20:46:22.192Z,19.48
2022-08-23T20:49:09.582Z,19.39
2022-08-23T20:51:55.999Z,19.13
2022-08-23T20:54:42.503Z,19.24
2022-08-23T20:57:29.101Z,19.02
2022-08-23T21:00:24.566Z,19.10
2022-08-23T21:03:10.802Z,19.05
2022-08-23T21:06:09.502Z,18.99
2022-08-23T21:08:59.903Z,18.92
2022-08-23T21:11:47.981Z,18.66
2022-08-23T21:14:34.953Z,18.58
2022-08-23T21:17:21.158Z,18.63
2022-08-23T21:20:08.403Z,18.16
2022-08-23T21:22:54.503Z,18.46
2022-08-23T21:25:41.370Z,18.51
2022-08-23T21:28:28.842Z,18.44
2022-08-23T21:31:18.267Z,18.38
2022-08-23T21:34:05.350Z,18.32
2022-08-23T21:36:52.222Z,18.06
2022-08-23T21:39:39.198Z,18.12
2022-08-23T21:42:25.956Z,18.13
2022-08-23T21:45:12.382Z,18.07
2022-08-23T21:47:58.774Z,17.91
2022-08-23T21:50:48.473Z,17.85
2022-08-23T21:53:35.187Z,17.70
2022-08-23T21:56:21.938Z,17.71
2022-08-23T21:59:12.516Z,17.72
2022-08-23T22:01:58.843Z,17.70
2022-08-23T22:04:45.503Z,17.28
2022-08-23T22:07:31.806Z,17.62
2022-08-23T22:10:18.313Z,17.19
2022-08-23T22:13:05.716Z,17.47
2022-08-23T22:15:52.930Z,17.35
2022-08-23T22:18:39.528Z,17.36
2022-08-23T22:21:25.890Z,17.34
2022-08-23T22:24:13.715Z,16.97
2022-08-23T22:27:00.373Z,16.96
2022-08-23T22:29:46.597Z,16.92
2022-08-23T22:32:33.338Z,16.76
2022-08-23T22:35:19.609Z,16.83
2022-08-23T22:38:14.385Z,16.84
2022-08-23T22:41:01.534Z,16.83
2022-08-23T22:43:47.897Z,16.93
2022-08-23T22:46:34.929Z,16.45
2022-08-23T22:49:21.390Z,16.77
2022-08-23T22:52:08.409Z,16.52
2022-08-23T22:54:54.647Z,16.55
2022-08-23T22:57:40.969Z,16.56
2022-08-23T23:00:27.893Z,16.46
2022-08-23T23:03:15.026Z,16.49
2022-08-23T23:06:01.950Z,16.55
2022-08-23T23:08:49.415Z,16.41
2022-08-23T23:11:36.574Z,16.45
2022-08-23T23:14:25.029Z,16.26
2022-08-23T23:17:11.247Z,16.25
2022-08-23T23:20:16.150Z,16.26
2022-08-23T23:23:02.528Z,16.29
2022-08-23T23:25:50.229Z,16.18
2022-08-23T23:28:36.685Z,16.14
2022-08-23T23:31:23.494Z,16.25
2022-08-23T23:34:10.152Z,16.29
2022-08-23T23:36:57.910Z,16.19
2022-08-23T23:39:44.927Z,15.89
2022-08-23T23:42:31.354Z,16.06
2022-08-23T23:45:18.262Z,16.01
2022-08-23T23:48:04.630Z,15.93
2022-08-23T23:50:54.916Z,15.96
2022-08-23T23:53:41.275Z,15.99
2022-08-23T23:56:29.422Z,15.80
2022-08-23T23:59:16.115Z,15.68
